Time;durP1;ratioP1;P1;durP2;ratioP2;P2;SDS_P1;SDS_P2;PMS_P1;PMS_P2;Temp;Humidity;BMP_temperature;BMP_pressure;BME280_temperature;BME280_humidity;BME280_pressure;Samples;Min_cycle;Max_cycle;Signal;HPM_P1;HPM_P2
2022/10/08 00:00:08;;;;;;;;;;;;;;;21.81;64.85;99621.47;7312805;19;129147;-38
2022/10/08 00:02:33;;;;;;;;;;;;;;;21.76;64.75;99622.81;7310805;19;129180;-40
2022/10/08 00:04:59;;;;;;;;;;;;;;;21.80;64.62;99617.16;7313958;19;129615;-38
2022/10/08 00:07:24;;;;;;;;;;;;;;;21.84;65.40;99615.09;7315270;19;129249;-39
2022/10/08 00:09:49;;;;;;;;;;;;;;;21.76;64.72;99605.34;7315308;19;129387;-40
2022/10/08 00:12:16;;;;;;;;;;;;;;;21.82;65.63;99604.78;7313470;19;128962;-38
2022/10/08 00:14:41;;;;;;;;;;;;;;;21.82;65.13;99606.56;7314980;19;129237;-38
2022/10/08 00:17:06;;;;;;;;;;;;;;;21.80;64.65;99604.09;7316120;19;129965;-39
2022/10/08 00:19:32;;;;;;;;;;;;;;;21.82;64.67;99606.56;7315594;19;129175;-38
2022/10/08 00:21:57;;;;;;;;;;;;;;;21.79;64.69;99605.06;7313240;19;129424;-38
2022/10/08 00:24:22;;;;;;;;;;;;;;;21.80;65.55;99604.09;7313940;19;129165;-39
2022/10/08 00:26:48;;;;;;;;;;;;;;;21.70;65.54;99582.31;7315613;19;129795;-39
2022/10/08 00:29:15;;;;;;;;;;;;;;;21.78;65.34;99595.53;7308998;19;128935;-38
2022/10/08 00:31:42;;;;;;;;;;;;;;;21.80;65.26;99596.22;7288820;19;130056;-39
2022/10/08 00:34:09;;;;;;;;;;;;;;;21.82;65.10;99596.09;7314149;19;130966;-40
2022/10/08 00:36:36;;;;;;;;;;;;;;;21.77;64.83;99593.91;7311909;19;129573;-40
2022/10/08 00:39:02;;;;;;;;;;;;;;;21.80;65.23;99587.56;7314246;19;129296;-40
2022/10/08 00:41:29;;;;;;;;;;;;;;;21.77;64.86;99578.22;7310885;19;129196;-40
2022/10/08 00:43:56;;;;;;;;;;;;;;;21.80;65.25;99593.63;7313513;19;130686;-38
2022/10/08 00:46:24;;;;;;;;;;;;;;;21.83;64.57;99588.09;7314982;19;129743;-40
2022/10/08 00:48:54;;;;;;;;;;;;;;;21.78;64.71;99579.84;7312595;19;129056;-39
2022/10/08 00:51:19;;;;;;;;;;;;;;;21.79;65.42;99578.06;7313025;19;128903;-39
2022/10/08 00:53:45;;;;;;;;;;;;;;;21.79;65.17;99581.50;7312585;19;129586;-41
2022/10/08 00:56:10;;;;;;;;;;;;;;;21.77;65.21;99572.97;7315464;19;130363;-40
2022/10/08 00:58:36;;;;;;;;;;;;;;;21.81;65.32;99569.13;7314931;19;129283;-39
2022/10/08 01:01:02;;;;;;;;;;;;;;;21.76;65.19;99566.09;7314922;19;128911;-39
2022/10/08 01:03:27;;;;;;;;;;;;;;;21.78;65.23;99558.91;7313700;19;129951;-40
2022/10/08 01:06:01;;;;;;;;;;;;;;;21.78;65.36;99564.13;7294236;19;129342;-39
2022/10/08 01:08:26;;;;;;;;;;;;;;;21.83;64.82;99556.69;7306466;19;131031;-39
2022/10/08 01:11:10;;;;;;;;;;;;;;;21.83;65.38;99555.88;7311268;19;129528;-39
2022/10/08 01:13:40;;;;;;;;;;;;;;;21.81;65.18;99550.81;7288237;19;129749;-38
2022/10/08 01:16:24;;;;;;;;;;;;;;;21.84;65.05;99553.13;7309506;19;130457;-40
2022/10/08 01:18:53;;;;;;;;;;;;;;;21.79;64.85;99550.09;7312827;19;128760;-40
2022/10/08 01:21:33;;;;;;;;;;;;;;;21.76;65.19;99544.28;7314250;19;130209;-37
2022/10/08 01:24:11;;;;;;;;;;;;;;;21.80;64.99;99546.50;7311821;19;129671;-38
2022/10/08 01:26:42;;;;;;;;;;;;;;;21.82;64.94;99546.38;7313394;19;129345;-40
2022/10/08 01:29:25;;;;;;;;;;;;;;;21.81;64.68;99526.41;7309389;19;129127;-38
2022/10/08 01:31:57;;;;;;;;;;;;;;;21.82;65.43;99544.59;7313055;19;129005;-40
2022/10/08 01:34:28;;;;;;;;;;;;;;;21.82;65.46;99533.28;7311337;19;130172;-39
2022/10/08 01:36:55;;;;;;;;;;;;;;;21.82;64.93;99547.19;7296438;19;129420;-43
2022/10/08 01:39:24;;;;;;;;;;;;;;;21.77;65.17;99528.47;7309060;19;128948;-40
2022/10/08 01:41:55;;;;;;;;;;;;;;;21.78;65.11;99524.09;7310516;19;129239;-37
2022/10/08 01:44:31;;;;;;;;;;;;;;;21.79;65.04;99523.94;7311513;19;129192;-40
2022/10/08 01:46:57;;;;;;;;;;;;;;;21.80;65.20;99533.44;7314345;19;129543;-40
2022/10/08 01:49:24;;;;;;;;;;;;;;;21.82;65.00;99515.78;7304721;19;129764;-39
2022/10/08 01:51:52;;;;;;;;;;;;;;;21.83;65.08;99516.63;7306811;19;130616;-39
2022/10/08 01:54:17;;;;;;;;;;;;;;;21.81;65.26;99516.78;7318240;19;129244;-38
2022/10/08 01:56:44;;;;;;;;;;;;;;;21.78;65.36;99519.66;7319258;19;129146;-42
2022/10/08 01:59:16;;;;;;;;;;;;;;;21.79;65.38;99512.63;7319673;19;128897;-38
2022/10/08 02:01:48;;;;;;;;;;;;;;;21.80;65.30;99514.28;7318252;19;129094;-38
2022/10/08 02:04:33;;;;;;;;;;;;;;;21.79;65.27;99515.25;7320085;19;130142;-39
2022/10/08 02:07:04;;;;;;;;;;;;;;;21.77;65.57;99512.78;7318482;19;129582;-39
2022/10/08 02:09:31;;;;;;;;;;;;;;;21.78;65.21;99500.53;7315091;19;129824;-38
2022/10/08 02:11:56;;;;;;;;;;;;;;;21.79;65.24;99502.16;7316566;19;129599;-38
2022/10/08 02:14:24;;;;;;;;;;;;;;;21.78;65.54;99503.94;7317752;19;129206;-40
2022/10/08 02:17:01;;;;;;;;;;;;;;;21.79;65.00;99505.63;7314340;19;129394;-39
2022/10/08 02:19:45;;;;;;;;;;;;;;;21.79;64.81;99492.53;7302164;19;129187;-40
2022/10/08 02:22:13;;;;;;;;;;;;;;;21.79;65.41;99487.31;7318499;19;129192;-39
2022/10/08 02:24:42;;;;;;;;;;;;;;;21.74;65.23;99484.25;7299018;19;129148;-41
2022/10/08 02:27:10;;;;;;;;;;;;;;;21.68;65.13;99474.34;7315657;19;129555;-39
2022/10/08 02:29:35;;;;;;;;;;;;;;;21.77;65.07;99491.00;7314552;19;128969;-39
2022/10/08 02:32:27;;;;;;;;;;;;;;;21.80;64.99;99483.72;7315553;19;129617;-39
2022/10/08 02:34:55;;;;;;;;;;;;;;;21.80;65.46;99488.94;7317362;19;129250;-39
2022/10/08 02:37:23;;;;;;;;;;;;;;;21.81;65.16;99489.78;7311841;19;129343;-39
2022/10/08 02:39:51;;;;;;;;;;;;;;;21.79;65.44;99489.91;7295589;19;130856;-38
2022/10/08 02:42:20;;;;;;;;;;;;;;;21.79;65.22;99489.91;7317675;19;129506;-39
2022/10/08 02:44:52;;;;;;;;;;;;;;;21.82;65.23;99491.41;7315316;19;129785;-38
2022/10/08 02:47:18;;;;;;;;;;;;;;;21.80;65.21;99488.94;7317949;19;129550;-38
2022/10/08 02:49:56;;;;;;;;;;;;;;;21.83;65.34;99496.50;7313659;19;129368;-38
2022/10/08 02:52:22;;;;;;;;;;;;;;;21.78;65.36;99490.88;7317541;19;129277;-38
2022/10/08 02:54:49;;;;;;;;;;;;;;;21.79;65.18;99494.31;7315205;19;129540;-39
2022/10/08 02:57:20;;;;;;;;;;;;;;;21.80;65.27;99482.88;7317593;19;129660;-39
2022/10/08 02:59:45;;;;;;;;;;;;;;;21.80;65.48;99488.94;7316871;19;129368;-39
2022/10/08 03:02:14;;;;;;;;;;;;;;;21.77;64.86;99491.00;7316706;19;128921;-40
2022/10/08 03:04:50;;;;;;;;;;;;;;;21.77;65.15;99493.63;7316984;19;129390;-38
2022/10/08 03:07:15;;;;;;;;;;;;;;;21.68;65.28;99478.78;7307671;19;129236;-39
2022/10/08 03:09:44;;;;;;;;;;;;;;;21.75;65.04;99485.09;7314489;19;129563;-39
2022/10/08 03:12:10;;;;;;;;;;;;;;;21.78;65.32;99498.72;7315990;19;128869;-38
2022/10/08 03:14:40;;;;;;;;;;;;;;;21.78;65.12;99496.09;7315143;19;129191;-40
2022/10/08 03:17:06;;;;;;;;;;;;;;;21.67;65.24;99472.72;7318024;19;129433;-40
2022/10/08 03:19:33;;;;;;;;;;;;;;;21.80;65.28;99486.31;7302580;19;130114;-40
2022/10/08 03:21:58;;;;;;;;;;;;;;;21.78;65.30;99482.22;7312405;19;130790;-38
2022/10/08 03:24:23;;;;;;;;;;;;;;;21.66;65.10;99476.31;7316390;19;129127;-39
2022/10/08 03:26:50;;;;;;;;;;;;;;;21.79;65.54;99492.53;7317900;19;129219;-38
2022/10/08 03:29:16;;;;;;;;;;;;;;;21.80;64.99;99488.94;7315865;19;128980;-38
2022/10/08 03:31:41;;;;;;;;;;;;;;;21.79;65.07;99491.69;7316876;19;129639;-38
2022/10/08 03:34:06;;;;;;;;;;;;;;;21.76;65.29;99492.81;7317287;19;129480;-39
2022/10/08 03:36:31;;;;;;;;;;;;;;;21.69;65.16;99476.00;7316834;19;130272;-40
2022/10/08 03:38:56;;;;;;;;;;;;;;;21.77;65.51;99494.47;7306244;19;131255;-40
2022/10/08 03:41:22;;;;;;;;;;;;;;;21.80;64.78;99488.94;7300771;19;129286;-38
2022/10/08 03:43:47;;;;;;;;;;;;;;;21.79;65.48;99494.31;7314787;19;129675;-39
2022/10/08 03:46:13;;;;;;;;;;;;;;;21.75;65.09;99491.13;7314151;19;129548;-38
2022/10/08 03:48:39;;;;;;;;;;;;;;;21.79;65.64;99487.31;7313690;19;129171;-38
2022/10/08 03:51:09;;;;;;;;;;;;;;;21.70;65.41;99477.66;7311974;19;129133;-42
2022/10/08 03:53:36;;;;;;;;;;;;;;;21.76;65.13;99492.81;7312451;19;129601;-40
2022/10/08 03:56:02;;;;;;;;;;;;;;;21.75;65.18;99485.91;7311669;19;130270;-39
2022/10/08 03:58:27;;;;;;;;;;;;;;;21.77;65.17;99485.78;7312524;19;129045;-39
2022/10/08 04:00:57;;;;;;;;;;;;;;;21.78;65.49;99490.88;7314023;19;129344;-39
2022/10/08 04:03:22;;;;;;;;;;;;;;;21.72;65.46;99475.72;7304388;19;129510;-40
2022/10/08 04:05:48;;;;;;;;;;;;;;;21.78;65.26;99484.84;7304948;19;129908;-41
2022/10/08 04:08:13;;;;;;;;;;;;;;;21.78;65.08;99496.09;7305385;19;129328;-42
2022/10/08 04:10:38;;;;;;;;;;;;;;;21.78;65.22;99490.88;7289743;19;130534;-40
2022/10/08 04:13:03;;;;;;;;;;;;;;;21.75;65.65;99501.59;7313379;19;130324;-38
2022/10/08 04:15:29;;;;;;;;;;;;;;;21.78;65.31;99495.31;7314755;19;129284;-38
2022/10/08 04:17:54;;;;;;;;;;;;;;;21.81;65.20;99495.84;7309051;19;129217;-38
2022/10/08 04:20:20;;;;;;;;;;;;;;;21.78;65.05;99490.88;7305825;19;130971;-40
2022/10/08 04:22:45;;;;;;;;;;;;;;;21.79;65.10;99495.16;7299725;19;130102;-42
2022/10/08 04:25:10;;;;;;;;;;;;;;;21.79;65.19;99491.69;7295722;19;129781;-44
2022/10/08 04:27:35;;;;;;;;;;;;;;;21.76;65.56;99492.81;7307758;19;130230;-40
2022/10/08 04:30:01;;;;;;;;;;;;;;;21.77;64.89;99488.41;7306703;19;131586;-39
2022/10/08 04:32:26;;;;;;;;;;;;;;;21.76;65.08;99492.81;7290565;19;130843;-39
2022/10/08 04:34:51;;;;;;;;;;;;;;;21.80;65.19;99488.94;7301221;19;130526;-40
2022/10/08 04:37:16;;;;;;;;;;;;;;;21.79;65.22;99492.53;7306999;19;129235;-39
2022/10/08 04:39:42;;;;;;;;;;;;;;;21.82;65.49;99487.00;7307017;19;129867;-39
2022/10/08 04:42:07;;;;;;;;;;;;;;;21.83;65.54;99488.66;7306877;19;130017;-38
2022/10/08 04:44:32;;;;;;;;;;;;;;;21.82;65.59;99487.00;7306900;19;129678;-37
2022/10/08 04:46:57;;;;;;;;;;;;;;;21.82;65.44;99491.41;7300489;19;129978;-41
2022/10/08 04:49:24;;;;;;;;;;;;;;;21.76;65.73;99484.97;7304499;19;129251;-39
2022/10/08 04:51:49;;;;;;;;;;;;;;;21.75;65.58;99491.13;7305011;19;129238;-38
2022/10/08 04:54:14;;;;;;;;;;;;;;;21.78;65.42;99493.47;7289472;19;130918;-42
2022/10/08 04:56:40;;;;;;;;;;;;;;;21.82;65.80;99499.25;7304140;19;129135;-40
2022/10/08 04:59:05;;;;;;;;;;;;;;;21.73;65.21;99479.97;7305658;19;130922;-40
2022/10/08 05:01:30;;;;;;;;;;;;;;;21.80;65.04;99493.34;7303680;19;129255;-41
2022/10/08 05:03:57;;;;;;;;;;;;;;;21.80;65.60;99496.78;7305070;19;130692;-43
2022/10/08 05:06:26;;;;;;;;;;;;;;;21.80;64.96;99494.16;7302576;19;130622;-39
2022/10/08 05:08:52;;;;;;;;;;;;;;;21.77;65.74;99489.22;7304697;19;130846;-38
2022/10/08 05:11:18;;;;;;;;;;;;;;;21.80;65.35;99488.09;7305731;19;130628;-39
2022/10/08 05:13:48;;;;;;;;;;;;;;;21.78;65.32;99493.47;7302624;19;129724;-41
2022/10/08 05:16:13;;;;;;;;;;;;;;;21.73;65.01;99482.59;7303875;19;129335;-38
2022/10/08 05:18:39;;;;;;;;;;;;;;;21.80;65.39;99499.41;7304930;19;129575;-41
2022/10/08 05:21:06;;;;;;;;;;;;;;;21.79;65.67;99495.16;7302538;19;131181;-39
2022/10/08 05:23:32;;;;;;;;;;;;;;;21.79;65.46;99497.78;7308705;19;129624;-38
2022/10/08 05:25:57;;;;;;;;;;;;;;;21.80;65.31;99499.41;7309070;19;131384;-39
2022/10/08 05:28:22;;;;;;;;;;;;;;;21.80;65.36;99501.19;7310596;19;130652;-40
2022/10/08 05:30:47;;;;;;;;;;;;;;;21.78;64.98;99505.75;7310830;19;129838;-38
2022/10/08 05:33:13;;;;;;;;;;;;;;;21.78;65.29;99505.75;7310213;19;129301;-40
2022/10/08 05:35:38;;;;;;;;;;;;;;;21.78;65.70;99511.81;7305362;19;129536;-37
2022/10/08 05:38:03;;;;;;;;;;;;;;;21.79;65.65;99508.25;7311792;19;129531;-39
2022/10/08 05:40:29;;;;;;;;;;;;;;;21.78;65.20;99506.56;7308664;19;129784;-37
2022/10/08 05:42:54;;;;;;;;;;;;;;;21.69;65.85;99491.72;7304868;19;130904;-37
2022/10/08 05:45:20;;;;;;;;;;;;;;;21.80;65.54;99509.88;7309794;19;130795;-38
2022/10/08 05:47:46;;;;;;;;;;;;;;;21.79;65.07;99516.09;7312758;19;130308;-35
2022/10/08 05:50:11;;;;;;;;;;;;;;;21.80;65.29;99514.28;7306343;19;130938;-37
2022/10/08 05:52:37;;;;;;;;;;;;;;;21.69;65.04;99501.34;7310853;19;130317;-37
2022/10/08 05:55:02;;;;;;;;;;;;;;;21.82;65.60;99523.66;7309200;19;129288;-39
2022/10/08 05:57:27;;;;;;;;;;;;;;;21.79;65.49;99531.78;7313211;19;130669;-39
2022/10/08 05:59:53;;;;;;;;;;;;;;;21.81;64.99;99542.13;7309439;19;130815;-38
2022/10/08 06:02:18;;;;;;;;;;;;;;;21.81;65.61;99548.19;7304732;19;130863;-38
2022/10/08 06:04:43;;;;;;;;;;;;;;;21.78;65.58;99537.97;7310467;19;129636;-36
2022/10/08 06:07:09;;;;;;;;;;;;;;;21.81;65.35;99550.81;7309905;19;129525;-38
2022/10/08 06:09:34;;;;;;;;;;;;;;;21.79;65.32;99550.09;7310047;19;129850;-37
2022/10/08 06:11:59;;;;;;;;;;;;;;;21.76;65.50;99552.16;7309473;19;131569;-38
2022/10/08 06:14:25;;;;;;;;;;;;;;;21.76;65.73;99550.41;7307044;19;131022;-40
2022/10/08 06:16:51;;;;;;;;;;;;;;;21.78;65.63;99545.81;7309044;19;130251;-38
2022/10/08 06:19:16;;;;;;;;;;;;;;;21.77;65.28;99562.50;7308317;19;129517;-39
2022/10/08 06:21:41;;;;;;;;;;;;;;;21.76;65.36;99563.47;7307609;19;132563;-38
2022/10/08 06:24:07;;;;;;;;;;;;;;;21.75;65.42;99574.88;7308876;19;130302;-38
2022/10/08 06:26:34;;;;;;;;;;;;;;;21.69;65.68;99559.75;7310146;19;129314;-37
2022/10/08 06:29:00;;;;;;;;;;;;;;;21.78;65.03;99577.22;7316058;19;130530;-39
2022/10/08 06:31:25;;;;;;;;;;;;;;;21.80;65.54;99580.53;7315651;19;129655;-38
2022/10/08 06:33:54;;;;;;;;;;;;;;;21.69;64.84;99572.81;7315965;19;130049;-41
2022/10/08 06:36:22;;;;;;;;;;;;;;;21.78;65.92;99587.69;7317315;19;129508;-39
2022/10/08 06:38:51;;;;;;;;;;;;;;;21.75;65.70;99585.34;7314058;19;130170;-39
2022/10/08 06:41:17;;;;;;;;;;;;;;;21.74;65.50;99585.47;7314824;19;130939;-41
2022/10/08 06:43:42;;;;;;;;;;;;;;;21.75;65.97;99584.53;7314817;19;130389;-39
2022/10/08 06:46:07;;;;;;;;;;;;;;;21.75;65.22;99590.56;7314705;19;129445;-39
2022/10/08 06:48:33;;;;;;;;;;;;;;;21.77;65.48;99591.28;7316912;19;129439;-40
2022/10/08 06:50:59;;;;;;;;;;;;;;;21.71;65.41;99578.75;7314387;19;129866;-39
2022/10/08 06:53:25;;;;;;;;;;;;;;;21.75;65.17;99595.00;7316418;19;129925;-41
2022/10/08 06:55:54;;;;;;;;;;;;;;;21.77;65.61;99593.91;7314644;19;129190;-37
2022/10/08 06:58:19;;;;;;;;;;;;;;;21.75;65.74;99601.03;7314318;19;131353;-38
2022/10/08 07:00:45;;;;;;;;;;;;;;;21.77;65.22;99599.13;7314619;19;130016;-38
2022/10/08 07:03:10;;;;;;;;;;;;;;;21.76;65.44;99602.72;7315759;19;129362;-38
2022/10/08 07:05:35;;;;;;;;;;;;;;;21.77;65.61;99606.16;7315729;19;130823;-39
2022/10/08 07:08:00;;;;;;;;;;;;;;;21.76;65.07;99602.72;7312131;19;130830;-37
2022/10/08 07:10:25;;;;;;;;;;;;;;;21.76;65.86;99607.97;7314276;19;129703;-40
2022/10/08 07:12:51;;;;;;;;;;;;;;;21.77;65.51;99609.59;7313736;19;131162;-40
2022/10/08 07:15:16;;;;;;;;;;;;;;;21.76;65.56;99610.59;7315265;19;129130;-39
2022/10/08 07:17:41;;;;;;;;;;;;;;;21.75;65.02;99611.50;7314301;19;128974;-39
2022/10/08 07:20:07;;;;;;;;;;;;;;;21.74;65.69;99609.88;7314567;19;130406;-39
2022/10/08 07:22:32;;;;;;;;;;;;;;;21.73;65.93;99616.03;7315903;19;130543;-40
2022/10/08 07:24:57;;;;;;;;;;;;;;;21.75;65.42;99611.50;7314491;19;129000;-39
2022/10/08 07:27:22;;;;;;;;;;;;;;;21.73;65.79;99602.97;7315015;19;129346;-39
2022/10/08 07:29:48;;;;;;;;;;;;;;;21.75;65.07;99610.69;7314993;19;129854;-40
2022/10/08 07:32:13;;;;;;;;;;;;;;;21.74;65.89;99606.41;7313722;19;130113;-40
2022/10/08 07:34:38;;;;;;;;;;;;;;;21.75;65.23;99608.88;7315920;19;129686;-39
2022/10/08 07:37:03;;;;;;;;;;;;;;;21.74;66.05;99609.88;7315234;19;129318;-37
2022/10/08 07:39:29;;;;;;;;;;;;;;;21.72;65.00;99606.56;7314816;19;130375;-37
2022/10/08 07:41:54;;;;;;;;;;;;;;;21.67;65.85;99619.22;7312740;19;129117;-39
2022/10/08 07:44:20;;;;;;;;;;;;;;;21.73;65.44;99617.84;7313124;19;128942;-39
2022/10/08 07:46:47;;;;;;;;;;;;;;;21.74;65.17;99617.72;7311062;19;129475;-40
2022/10/08 07:49:13;;;;;;;;;;;;;;;21.74;65.11;99620.31;7306179;19;131148;-40
2022/10/08 07:51:40;;;;;;;;;;;;;;;21.78;65.41;99624.34;7312526;19;130424;-41
2022/10/08 07:54:07;;;;;;;;;;;;;;;21.75;65.32;99619.34;7314419;19;129518;-38
2022/10/08 07:56:32;;;;;;;;;;;;;;;21.75;65.63;99623.78;7315814;19;129210;-40
2022/10/08 07:58:58;;;;;;;;;;;;;;;21.75;65.27;99637.66;7309676;19;130607;-39
2022/10/08 08:01:28;;;;;;;;;;;;;;;21.65;65.20;99615.91;7312302;19;129121;-39
2022/10/08 08:03:54;;;;;;;;;;;;;;;21.76;65.88;99635.88;7312926;19;129940;-39
2022/10/08 08:06:20;;;;;;;;;;;;;;;21.81;65.77;99639.78;7312122;19;129581;-38
2022/10/08 08:08:45;;;;;;;;;;;;;;;21.76;65.68;99639.38;7310107;19;130140;-39
2022/10/08 08:11:12;;;;;;;;;;;;;;;21.70;65.07;99624.19;7310819;19;129328;-38
2022/10/08 08:13:38;;;;;;;;;;;;;;;21.80;65.75;99640.72;7315413;19;128821;-38
2022/10/08 08:16:05;;;;;;;;;;;;;;;21.79;64.96;99633.84;7313202;19;129215;-40
2022/10/08 08:18:31;;;;;;;;;;;;;;;21.80;65.54;99634.66;7313952;19;129426;-39
2022/10/08 08:20:58;;;;;;;;;;;;;;;21.75;65.08;99632.44;7315649;19;128977;-39
2022/10/08 08:23:24;;;;;;;;;;;;;;;21.76;65.85;99634.13;7313883;19;129001;-41
2022/10/08 08:25:49;;;;;;;;;;;;;;;21.77;65.11;99630.53;7312415;19;129054;-41
2022/10/08 08:28:14;;;;;;;;;;;;;;;21.79;65.45;99628.63;7315175;19;130468;-39
2022/10/08 08:30:39;;;;;;;;;;;;;;;21.77;65.67;99630.53;7312329;19;129146;-40
2022/10/08 08:33:04;;;;;;;;;;;;;;;21.77;65.84;99635.78;7314172;19;129040;-40
2022/10/08 08:35:30;;;;;;;;;;;;;;;21.76;65.78;99633.28;7312443;19;129127;-40
2022/10/08 08:37:55;;;;;;;;;;;;;;;21.75;64.93;99640.28;7315163;19;129478;-40
2022/10/08 08:40:20;;;;;;;;;;;;;;;21.78;65.46;99637.41;7314671;19;129782;-39
2022/10/08 08:42:52;;;;;;;;;;;;;;;21.78;65.31;99629.56;7313816;19;129444;-40
2022/10/08 08:45:26;;;;;;;;;;;;;;;21.79;65.03;99635.63;7312527;19;129985;-40
2022/10/08 08:48:18;;;;;;;;;;;;;;;21.77;65.63;99643.63;7314430;19;130362;-39
2022/10/08 08:50:45;;;;;;;;;;;;;;;21.76;65.32;99639.38;7310588;19;129311;-40
2022/10/08 08:53:10;;;;;;;;;;;;;;;21.76;65.06;99644.59;7313352;19;129022;-40
2022/10/08 08:55:37;;;;;;;;;;;;;;;21.78;65.59;99642.66;7311662;19;129596;-39
2022/10/08 08:58:02;;;;;;;;;;;;;;;21.75;65.83;99645.53;7311949;19;129893;-39
2022/10/08 09:00:34;;;;;;;;;;;;;;;21.77;65.88;99643.63;7313400;19;128912;-38
2022/10/08 09:03:02;;;;;;;;;;;;;;;21.80;65.06;99645.13;7312827;19;129087;-38
2022/10/08 09:05:30;;;;;;;;;;;;;;;21.74;65.10;99646.50;7311919;19;130826;-39
2022/10/08 09:08:06;;;;;;;;;;;;;;;21.79;65.70;99664.41;7310020;19;146912;-40
2022/10/08 09:10:38;;;;;;;;;;;;;;;21.80;65.36;99651.19;7310792;19;128907;-39
2022/10/08 09:13:10;;;;;;;;;;;;;;;21.77;65.40;99651.47;7312938;19;128979;-38
2022/10/08 09:15:36;;;;;;;;;;;;;;;21.77;65.74;99656.72;7311364;19;130238;-38
2022/10/08 09:18:03;;;;;;;;;;;;;;;21.74;65.38;99654.34;7313728;19;129243;-37
2022/10/08 09:20:28;;;;;;;;;;;;;;;21.75;65.13;99656.00;7313336;19;129073;-40
2022/10/08 09:22:54;;;;;;;;;;;;;;;21.74;65.38;99650.91;7312947;19;129905;-38
2022/10/08 09:25:21;;;;;;;;;;;;;;;21.74;65.55;99651.72;7310852;19;129540;-40
2022/10/08 09:27:55;;;;;;;;;;;;;;;21.76;65.14;99660.31;7314521;19;130628;-39
2022/10/08 09:30:24;;;;;;;;;;;;;;;21.75;65.27;99658.59;7311563;19;129083;-40
2022/10/08 09:32:49;;;;;;;;;;;;;;;21.77;65.50;99664.56;7312112;19;129046;-39
2022/10/08 09:35:15;;;;;;;;;;;;;;;21.74;65.54;99667.44;7311683;19;129831;-38
2022/10/08 09:37:44;;;;;;;;;;;;;;;21.75;65.70;99669.06;7312409;19;130013;-38
2022/10/08 09:40:12;;;;;;;;;;;;;;;21.68;65.44;99652.25;7313494;19;128869;-38
2022/10/08 09:42:37;;;;;;;;;;;;;;;21.76;65.25;99667.28;7311126;19;130139;-40
2022/10/08 09:45:23;;;;;;;;;;;;;;;21.67;65.70;99645.38;7311268;19;129200;-39
2022/10/08 09:48:08;;;;;;;;;;;;;;;21.77;65.45;99661.94;7312324;19;129643;-40
2022/10/08 09:50:35;;;;;;;;;;;;;;;21.74;65.80;99667.44;7310484;19;129358;-40
2022/10/08 09:53:00;;;;;;;;;;;;;;;21.75;65.46;99669.06;7311440;19;129147;-38
2022/10/08 09:55:29;;;;;;;;;;;;;;;21.72;66.00;99674.59;7310107;19;131262;-39
2022/10/08 09:57:59;;;;;;;;;;;;;;;21.75;65.46;99674.31;7313019;19;129771;-38
2022/10/08 10:00:31;;;;;;;;;;;;;;;21.72;65.79;99679.81;7311686;19;129327;-39
2022/10/08 10:02:58;;;;;;;;;;;;;;;21.65;65.78;99660.41;7312364;19;129806;-39
2022/10/08 10:05:25;;;;;;;;;;;;;;;21.66;65.80;99664.69;7309125;19;129712;-40
2022/10/08 10:07:51;;;;;;;;;;;;;;;21.76;65.82;99681.25;7311912;19;129283;-38
2022/10/08 10:10:23;;;;;;;;;;;;;;;21.79;65.21;99688.81;7315777;19;128949;-40
2022/10/08 10:13:08;;;;;;;;;;;;;;;21.77;65.34;99688.13;7317796;19;130045;-40
2022/10/08 10:15:38;;;;;;;;;;;;;;;21.75;65.77;99683.97;7316007;19;129854;-40
2022/10/08 10:18:08;;;;;;;;;;;;;;;21.75;65.59;99690.00;7317994;19;130447;-38
2022/10/08 10:20:39;;;;;;;;;;;;;;;21.74;65.28;99683.13;7319503;19;129048;-40
2022/10/08 10:23:10;;;;;;;;;;;;;;;21.78;64.98;99688.94;7317650;19;128866;-37
2022/10/08 10:25:54;;;;;;;;;;;;;;;21.76;65.79;99688.22;7317428;19;129083;-38
2022/10/08 10:28:31;;;;;;;;;;;;;;;21.76;65.73;99689.09;7318599;19;130239;-40
2022/10/08 10:31:09;;;;;;;;;;;;;;;21.76;65.49;99696.06;7315436;19;128820;-39
2022/10/08 10:33:53;;;;;;;;;;;;;;;21.76;65.82;99693.47;7319772;19;129396;-40
2022/10/08 10:36:20;;;;;;;;;;;;;;;21.75;65.31;99689.19;7317508;19;130392;-38
2022/10/08 10:38:56;;;;;;;;;;;;;;;21.77;65.12;99692.50;7316489;19;129450;-40
2022/10/08 10:41:42;;;;;;;;;;;;;;;21.74;65.41;99692.75;7317331;19;128749;-39
2022/10/08 10:44:12;;;;;;;;;;;;;;;21.74;65.54;99687.53;7318004;19;129217;-40
2022/10/08 10:46:45;;;;;;;;;;;;;;;21.76;65.35;99686.47;7318407;19;129639;-40
2022/10/08 10:49:14;;;;;;;;;;;;;;;21.66;65.62;99664.69;7317111;19;129203;-38
2022/10/08 10:51:42;;;;;;;;;;;;;;;21.72;66.07;99679.81;7316438;19;128838;-38
2022/10/08 10:54:22;;;;;;;;;;;;;;;21.74;65.61;99685.75;7317538;19;129107;-40
2022/10/08 10:56:55;;;;;;;;;;;;;;;21.77;65.73;99687.28;7318614;19;130240;-40
2022/10/08 10:59:29;;;;;;;;;;;;;;;21.73;65.78;99686.69;7316815;19;130257;-38
2022/10/08 11:01:55;;;;;;;;;;;;;;;21.77;65.64;99684.66;7317375;19;129395;-40
2022/10/08 11:04:41;;;;;;;;;;;;;;;21.74;65.47;99687.53;7317241;19;131067;-40
2022/10/08 11:07:29;;;;;;;;;;;;;;;21.72;65.91;99695.53;7317727;19;129483;-40
2022/10/08 11:09:55;;;;;;;;;;;;;;;21.75;65.72;99683.97;7315909;19;129755;-38
2022/10/08 11:12:20;;;;;;;;;;;;;;;21.76;65.67;99681.25;7316968;19;128885;-38
2022/10/08 11:14:46;;;;;;;;;;;;;;;21.71;65.27;99672.13;7316480;19;129048;-38
2022/10/08 11:17:15;;;;;;;;;;;;;;;21.76;65.51;99681.25;7317867;19;130900;-39
2022/10/08 11:19:51;;;;;;;;;;;;;;;21.75;65.85;99682.16;7316539;19;130380;-39
2022/10/08 11:22:28;;;;;;;;;;;;;;;21.76;65.41;99676.00;7316505;19;129085;-39
2022/10/08 11:24:56;;;;;;;;;;;;;;;21.76;65.82;99672.53;7315124;19;129307;-39
2022/10/08 11:27:39;;;;;;;;;;;;;;;21.76;65.59;99677.75;7316370;19;130215;-39
2022/10/08 11:30:13;;;;;;;;;;;;;;;21.74;65.71;99683.13;7315685;19;130866;-40
2022/10/08 11:32:40;;;;;;;;;;;;;;;21.76;65.12;99686.47;7316727;19;129156;-40
2022/10/08 11:35:25;;;;;;;;;;;;;;;21.75;65.84;99684.78;7315946;19;129233;-40
2022/10/08 11:37:55;;;;;;;;;;;;;;;21.70;65.49;99671.28;7315346;19;129115;-40
2022/10/08 11:40:20;;;;;;;;;;;;;;;21.75;65.44;99691.81;7316004;19;129425;-39
2022/10/08 11:42:45;;;;;;;;;;;;;;;21.75;65.63;99690.00;7315276;19;129045;-39
2022/10/08 11:45:22;;;;;;;;;;;;;;;21.74;66.02;99688.38;7314200;19;129385;-39
2022/10/08 11:47:50;;;;;;;;;;;;;;;21.68;65.62;99665.34;7317345;19;129646;-40
2022/10/08 11:50:32;;;;;;;;;;;;;;;21.75;65.93;99679.53;7315456;19;130312;-39
2022/10/08 11:53:00;;;;;;;;;;;;;;;21.74;65.95;99677.91;7316028;19;129533;-40
2022/10/08 11:55:28;;;;;;;;;;;;;;;21.63;66.01;99664.97;7314580;19;129154;-39
2022/10/08 11:57:55;;;;;;;;;;;;;;;21.75;65.85;99671.69;7317561;19;129563;-40
2022/10/08 12:00:39;;;;;;;;;;;;;;;21.74;65.88;99672.66;7309980;19;129881;-38
2022/10/08 12:03:15;;;;;;;;;;;;;;;21.75;65.45;99674.31;7316046;19;129136;-38
2022/10/08 12:05:42;;;;;;;;;;;;;;;21.73;65.54;99668.38;7313091;19;129121;-39
2022/10/08 12:08:08;;;;;;;;;;;;;;;21.75;65.89;99669.06;7309096;19;130341;-39
2022/10/08 12:10:36;;;;;;;;;;;;;;;21.75;65.61;99669.06;7311368;19;130426;-40
2022/10/08 12:13:02;;;;;;;;;;;;;;;21.72;65.75;99668.50;7315392;19;129550;-41
2022/10/08 12:15:27;;;;;;;;;;;;;;;21.72;65.45;99669.34;7314028;19;130322;-40
2022/10/08 12:17:57;;;;;;;;;;;;;;;21.75;65.54;99670.88;7315113;19;130237;-38
2022/10/08 12:20:26;;;;;;;;;;;;;;;21.75;65.27;99674.31;7316045;19;129430;-40
2022/10/08 12:22:58;;;;;;;;;;;;;;;21.74;65.89;99667.44;7314761;19;129174;-41
2022/10/08 12:25:29;;;;;;;;;;;;;;;21.73;65.97;99671.00;7313078;19;129376;-41
2022/10/08 12:28:14;;;;;;;;;;;;;;;21.73;65.96;99671.00;7315993;19;129338;-40
2022/10/08 12:30:50;;;;;;;;;;;;;;;21.72;65.93;99664.13;7312796;19;129402;-41
2022/10/08 12:33:16;;;;;;;;;;;;;;;21.74;65.75;99664.81;7311215;19;129124;-41
2022/10/08 12:35:56;;;;;;;;;;;;;;;21.74;65.40;99662.19;7312142;19;129009;-39
2022/10/08 12:38:22;;;;;;;;;;;;;;;21.73;65.97;99659.72;7314807;19;132137;-39
2022/10/08 12:40:47;;;;;;;;;;;;;;;21.71;65.79;99651.19;7313693;19;130141;-40